createdAt,value
2016-10-04T00:00:23.220Z,0
2016-10-04T00:01:04.981Z,0
2016-10-04T00:01:46.573Z,0
2016-10-04T00:02:28.176Z,0
2016-10-04T00:03:09.839Z,0
2016-10-04T00:03:51.668Z,0
2016-10-04T00:04:33.395Z,0
2016-10-04T00:05:14.923Z,0
2016-10-04T00:05:56.590Z,0
2016-10-04T00:06:38.296Z,0
2016-10-04T00:07:19.994Z,0
2016-10-04T00:08:01.514Z,0
2016-10-04T00:08:43.183Z,0
2016-10-04T00:09:24.851Z,0
2016-10-04T00:10:06.591Z,0
2016-10-04T00:10:48.784Z,0
2016-10-04T00:11:33.788Z,0
2016-10-04T00:12:15.485Z,0
2016-10-04T00:12:57.247Z,0
2016-10-04T00:13:38.987Z,0
2016-10-04T00:14:20.657Z,0
2016-10-04T00:15:02.333Z,0
2016-10-04T00:15:44.099Z,0
2016-10-04T00:16:25.707Z,0
2016-10-04T00:17:07.214Z,0
2016-10-04T00:17:48.980Z,0
2016-10-04T00:18:30.703Z,0
2016-10-04T00:19:12.420Z,0
2016-10-04T00:19:54.173Z,0
2016-10-04T00:20:35.874Z,0
2016-10-04T00:21:17.480Z,0
2016-10-04T00:21:59.218Z,0
2016-10-04T00:22:40.920Z,0
2016-10-04T00:23:22.650Z,0
2016-10-04T00:24:04.421Z,0
2016-10-04T00:24:46.159Z,0
2016-10-04T00:25:27.807Z,0
2016-10-04T00:26:09.533Z,0
2016-10-04T00:26:51.138Z,0
2016-10-04T00:27:32.785Z,0
2016-10-04T00:28:14.443Z,0
2016-10-04T00:28:56.225Z,0
2016-10-04T00:29:37.903Z,0
2016-10-04T00:30:19.596Z,0
2016-10-04T00:31:01.270Z,0
2016-10-04T00:31:42.913Z,0
2016-10-04T00:32:24.575Z,0
2016-10-04T00:33:06.295Z,0
2016-10-04T00:33:48.037Z,0
2016-10-04T00:34:29.777Z,0
2016-10-04T00:35:11.538Z,0
2016-10-04T00:35:53.250Z,0
2016-10-04T00:36:34.919Z,0
2016-10-04T00:37:16.556Z,0
2016-10-04T00:37:58.234Z,0
2016-10-04T00:38:40.615Z,0
2016-10-04T00:39:22.297Z,0
2016-10-04T00:40:04.052Z,0
2016-10-04T00:40:45.704Z,0
2016-10-04T00:41:27.409Z,0
2016-10-04T00:42:09.147Z,0
2016-10-04T00:42:50.889Z,0
2016-10-04T00:43:32.660Z,0
2016-10-04T00:44:14.399Z,0
2016-10-04T00:44:56.117Z,0
2016-10-04T00:45:37.799Z,0
2016-10-04T00:46:19.545Z,0
2016-10-04T00:47:01.176Z,0
2016-10-04T00:47:42.780Z,0
2016-10-04T00:48:24.246Z,0
2016-10-04T00:49:05.867Z,0
2016-10-04T00:49:47.565Z,0
2016-10-04T00:50:29.377Z,0
2016-10-04T00:51:11.093Z,0
2016-10-04T00:51:52.860Z,0
2016-10-04T00:52:34.572Z,0
2016-10-04T00:53:16.256Z,0
2016-10-04T00:53:57.919Z,0
2016-10-04T00:54:39.636Z,0
2016-10-04T00:55:21.396Z,0
2016-10-04T00:56:02.889Z,0
2016-10-04T00:56:43.415Z,0
2016-10-04T00:57:23.957Z,0
2016-10-04T00:58:04.495Z,0
2016-10-04T00:58:44.993Z,0
2016-10-04T00:59:25.516Z,0
2016-10-04T01:00:06.039Z,0
2016-10-04T01:00:46.582Z,0
2016-10-04T01:01:27.090Z,0
2016-10-04T01:02:07.637Z,0
2016-10-04T01:02:48.243Z,0
2016-10-04T01:03:28.720Z,0
2016-10-04T01:04:09.255Z,0
2016-10-04T01:04:49.838Z,0
2016-10-04T01:05:30.363Z,0
2016-10-04T01:06:10.921Z,0
2016-10-04T01:06:51.454Z,0
2016-10-04T01:07:31.989Z,0
2016-10-04T01:08:12.552Z,0
2016-10-04T01:08:53.092Z,0
2016-10-04T01:09:33.629Z,0
2016-10-04T01:10:14.199Z,0
2016-10-04T01:10:54.757Z,0
2016-10-04T01:11:35.314Z,0
2016-10-04T01:12:15.879Z,0
2016-10-04T01:12:56.435Z,0
2016-10-04T01:13:36.949Z,0
2016-10-04T01:14:17.492Z,0
2016-10-04T01:14:58.045Z,0
2016-10-04T01:15:38.606Z,0
2016-10-04T01:16:19.108Z,0
2016-10-04T01:16:59.657Z,0
2016-10-04T01:17:40.258Z,0
2016-10-04T01:18:20.736Z,0
2016-10-04T01:19:01.307Z,0
2016-10-04T01:19:41.814Z,0
2016-10-04T01:20:22.374Z,0
2016-10-04T01:21:02.860Z,0
2016-10-04T01:21:43.385Z,0
2016-10-04T01:22:23.945Z,0
2016-10-04T01:23:04.466Z,0
2016-10-04T01:23:45.025Z,0
2016-10-04T01:24:25.548Z,0
2016-10-04T01:25:06.179Z,0
2016-10-04T01:25:46.665Z,0
2016-10-04T01:26:27.137Z,0
2016-10-04T01:27:07.675Z,0
2016-10-04T01:27:48.233Z,0
2016-10-04T01:28:28.772Z,0
2016-10-04T01:29:09.268Z,0
2016-10-04T01:29:49.816Z,0
2016-10-04T01:30:30.414Z,0
2016-10-04T01:31:10.867Z,0
2016-10-04T01:31:51.411Z,0
2016-10-04T01:32:31.949Z,0
2016-10-04T01:33:12.528Z,0
2016-10-04T01:33:53.032Z,0
2016-10-04T01:34:33.569Z,0
2016-10-04T01:35:14.102Z,0
2016-10-04T01:35:54.669Z,0
2016-10-04T01:36:35.183Z,0
2016-10-04T01:37:17.223Z,0
2016-10-04T01:37:57.780Z,0
2016-10-04T01:38:38.303Z,0
2016-10-04T01:39:18.886Z,0
2016-10-04T01:39:59.395Z,0
2016-10-04T01:40:39.924Z,0
2016-10-04T01:41:20.449Z,0
2016-10-04T01:42:01.072Z,0
2016-10-04T01:42:41.563Z,0
2016-10-04T01:43:22.094Z,0
2016-10-04T01:44:02.617Z,0
2016-10-04T01:44:43.137Z,0
2016-10-04T01:45:23.651Z,0
2016-10-04T01:46:04.264Z,0
2016-10-04T01:46:44.837Z,0
2016-10-04T01:47:25.335Z,0
2016-10-04T01:48:05.888Z,0
2016-10-04T01:48:46.422Z,0
2016-10-04T01:49:26.959Z,0
2016-10-04T01:50:07.521Z,0
2016-10-04T01:50:48.099Z,0
2016-10-04T01:51:28.625Z,0
2016-10-04T01:52:09.162Z,0
2016-10-04T01:52:49.671Z,0
2016-10-04T01:53:30.184Z,0
2016-10-04T01:54:10.741Z,0
2016-10-04T01:54:51.275Z,0
2016-10-04T01:55:31.835Z,0
2016-10-04T01:56:12.361Z,0
2016-10-04T01:56:52.915Z,0
2016-10-04T01:57:33.487Z,0
2016-10-04T01:58:13.987Z,0
2016-10-04T01:58:54.540Z,0
2016-10-04T01:59:35.050Z,0
2016-10-04T02:00:15.589Z,0
2016-10-04T02:00:56.115Z,0
2016-10-04T02:01:36.697Z,0
2016-10-04T02:02:17.231Z,0
2016-10-04T02:02:57.720Z,0
2016-10-04T02:03:38.253Z,0
2016-10-04T02:04:18.772Z,0
2016-10-04T02:04:59.311Z,0
2016-10-04T02:05:39.888Z,0
2016-10-04T02:06:20.401Z,0
2016-10-04T02:07:00.973Z,0
2016-10-04T02:07:41.519Z,0
2016-10-04T02:08:22.025Z,0
2016-10-04T02:09:02.541Z,0
2016-10-04T02:09:43.076Z,0
2016-10-04T02:10:23.651Z,0
2016-10-04T02:11:04.181Z,0
2016-10-04T02:11:44.724Z,0
2016-10-04T02:12:25.289Z,0
2016-10-04T02:13:05.841Z,0
2016-10-04T02:13:46.393Z,0
2016-10-04T02:14:26.853Z,0
2016-10-04T02:15:07.382Z,0
2016-10-04T02:15:47.936Z,0
2016-10-04T02:16:28.426Z,0
2016-10-04T02:17:08.951Z,0
2016-10-04T02:17:49.481Z,0
2016-10-04T02:18:30.043Z,0
2016-10-04T02:19:10.628Z,0
2016-10-04T02:19:51.147Z,0
2016-10-04T02:20:31.600Z,0
2016-10-04T02:21:12.121Z,0
2016-10-04T02:21:52.704Z,0
2016-10-04T02:22:33.237Z,0
2016-10-04T02:23:13.734Z,0
2016-10-04T02:23:54.265Z,0
2016-10-04T02:24:34.818Z,0
2016-10-04T02:25:15.351Z,0
2016-10-04T02:25:55.926Z,0
2016-10-04T02:26:36.449Z,0
2016-10-04T02:27:17.013Z,0
2016-10-04T02:27:57.532Z,0
2016-10-04T02:28:38.041Z,0
2016-10-04T02:29:18.559Z,0
2016-10-04T02:29:59.089Z,0
2016-10-04T02:30:39.710Z,0
2016-10-04T02:31:20.180Z,0
2016-10-04T02:32:00.714Z,0
2016-10-04T02:32:41.242Z,0
2016-10-04T02:33:21.785Z,0
2016-10-04T02:34:02.440Z,0
2016-10-04T02:34:42.989Z,0
2016-10-04T02:35:23.522Z,0
2016-10-04T02:36:04.067Z,0
2016-10-04T02:36:44.625Z,0
2016-10-04T02:37:25.150Z,0
2016-10-04T02:38:05.712Z,0
2016-10-04T02:38:46.261Z,0
2016-10-04T02:39:26.795Z,0
2016-10-04T02:40:07.333Z,0
2016-10-04T02:40:47.803Z,0
2016-10-04T02:41:28.343Z,0
2016-10-04T02:42:08.895Z,0
2016-10-04T02:42:49.450Z,0
2016-10-04T02:43:29.946Z,0
2016-10-04T02:44:10.465Z,0
2016-10-04T02:44:51.054Z,0
2016-10-04T02:45:31.531Z,0
2016-10-04T02:46:12.078Z,0
2016-10-04T02:46:52.611Z,0
2016-10-04T02:47:33.178Z,0
2016-10-04T02:48:13.666Z,0
2016-10-04T02:48:54.235Z,0
2016-10-04T02:49:34.762Z,0
2016-10-04T02:50:15.317Z,0
2016-10-04T02:50:55.888Z,0
2016-10-04T02:51:37.330Z,0
2016-10-04T02:52:17.850Z,0
2016-10-04T02:52:58.425Z,0
2016-10-04T02:53:38.937Z,0
2016-10-04T02:54:19.477Z,0
2016-10-04T02:55:00.076Z,0
2016-10-04T02:55:40.580Z,0
2016-10-04T02:56:21.091Z,0
2016-10-04T02:57:01.632Z,0
2016-10-04T02:57:42.177Z,0
2016-10-04T02:58:22.657Z,0
2016-10-04T02:59:03.195Z,0
2016-10-04T02:59:43.695Z,0
2016-10-04T03:00:24.251Z,0
2016-10-04T03:01:04.775Z,0
2016-10-04T03:01:45.300Z,0
2016-10-04T03:02:25.823Z,0
2016-10-04T03:03:06.402Z,0
2016-10-04T03:03:46.958Z,0
2016-10-04T03:04:27.498Z,0
2016-10-04T03:05:08.035Z,0
2016-10-04T03:05:48.553Z,0
2016-10-04T03:06:29.091Z,0
2016-10-04T03:07:09.597Z,0
2016-10-04T03:07:50.128Z,0
2016-10-04T03:08:30.655Z,0
2016-10-04T03:09:11.170Z,0
2016-10-04T03:09:52.091Z,0
2016-10-04T03:10:32.590Z,0
2016-10-04T03:11:13.105Z,0
2016-10-04T03:11:53.651Z,0
2016-10-04T03:12:34.209Z,0
2016-10-04T03:13:14.756Z,0
2016-10-04T03:13:55.262Z,0
2016-10-04T03:14:35.801Z,0
2016-10-04T03:15:16.354Z,0
2016-10-04T03:15:56.896Z,0
2016-10-04T03:16:37.440Z,0
2016-10-04T03:17:17.952Z,0
2016-10-04T03:17:58.493Z,0
2016-10-04T03:18:39.016Z,0
2016-10-04T03:19:19.532Z,0
2016-10-04T03:20:00.053Z,0
2016-10-04T03:20:40.576Z,0
2016-10-04T03:21:21.174Z,0
2016-10-04T03:22:01.693Z,0
2016-10-04T03:22:42.257Z,0
2016-10-04T03:23:22.739Z,0
2016-10-04T03:24:03.271Z,0
2016-10-04T03:24:43.785Z,0
2016-10-04T03:25:24.295Z,0
2016-10-04T03:26:04.807Z,0
2016-10-04T03:26:45.357Z,0
2016-10-04T03:27:25.910Z,0
2016-10-04T03:28:06.407Z,0
2016-10-04T03:28:46.894Z,0
2016-10-04T03:29:27.387Z,0
2016-10-04T03:30:07.880Z,0
2016-10-04T03:30:48.409Z,0
2016-10-04T03:31:28.931Z,0
2016-10-04T03:32:09.400Z,0
2016-10-04T03:32:49.925Z,0
2016-10-04T03:33:30.400Z,0
2016-10-04T03:34:10.944Z,0
2016-10-04T03:34:51.447Z,0
2016-10-04T03:35:31.977Z,0
2016-10-04T03:36:12.474Z,0
2016-10-04T03:36:52.986Z,0
2016-10-04T03:37:33.465Z,0
2016-10-04T03:38:14.010Z,0
2016-10-04T03:38:54.523Z,0
2016-10-04T03:39:35.028Z,0
2016-10-04T03:40:15.505Z,0
2016-10-04T03:40:56.009Z,0
2016-10-04T03:41:36.553Z,0
2016-10-04T03:42:17.113Z,0
2016-10-04T03:42:57.655Z,0
2016-10-04T03:43:38.169Z,0
2016-10-04T03:44:18.688Z,0
2016-10-04T03:44:59.231Z,0
2016-10-04T03:45:39.752Z,0
2016-10-04T03:46:20.297Z,0
2016-10-04T03:47:00.895Z,0
2016-10-04T03:47:41.398Z,0
2016-10-04T03:48:21.965Z,0
2016-10-04T03:49:02.500Z,0
2016-10-04T03:49:43.048Z,0
2016-10-04T03:50:23.550Z,0
2016-10-04T03:51:04.076Z,0
2016-10-04T03:51:44.641Z,0
2016-10-04T03:52:25.138Z,0
2016-10-04T03:53:05.682Z,0
2016-10-04T03:53:46.145Z,0
2016-10-04T03:54:26.622Z,0
2016-10-04T03:55:07.140Z,0
2016-10-04T03:55:47.618Z,0
2016-10-04T03:56:28.123Z,0
2016-10-04T03:57:08.649Z,0
2016-10-04T03:57:49.181Z,0
2016-10-04T03:58:29.782Z,0
2016-10-04T03:59:10.241Z,0
2016-10-04T03:59:50.726Z,0
2016-10-04T04:00:31.243Z,0
2016-10-04T04:01:11.748Z,0
2016-10-04T04:01:52.254Z,0
2016-10-04T04:02:32.754Z,0
2016-10-04T04:03:13.234Z,0
2016-10-04T04:03:53.726Z,0
2016-10-04T04:04:34.239Z,0
2016-10-04T04:05:14.775Z,0
2016-10-04T04:05:55.301Z,0
2016-10-04T04:06:35.822Z,0
2016-10-04T04:07:16.358Z,0
2016-10-04T04:07:56.847Z,0
2016-10-04T04:11:17.153Z,0
2016-10-04T04:11:57.730Z,0
2016-10-04T04:12:38.240Z,0
2016-10-04T04:13:18.764Z,0
2016-10-04T04:13:59.319Z,0
2016-10-04T04:14:39.880Z,0
2016-10-04T04:15:20.421Z,0
2016-10-04T04:16:00.968Z,0
2016-10-04T04:16:41.498Z,0
2016-10-04T04:17:22.004Z,0
2016-10-04T04:18:02.504Z,0
2016-10-04T04:18:42.997Z,0
2016-10-04T04:19:23.485Z,0
2016-10-04T04:20:03.964Z,0
2016-10-04T04:20:44.460Z,0
2016-10-04T04:21:24.976Z,0
2016-10-04T04:22:05.448Z,0
2016-10-04T04:22:45.967Z,0
2016-10-04T04:23:26.460Z,0
2016-10-04T04:24:06.976Z,0
2016-10-04T04:24:47.501Z,0
2016-10-04T04:25:28.026Z,0
2016-10-04T04:26:08.571Z,0
2016-10-04T04:26:49.108Z,0
2016-10-04T04:27:29.636Z,0
2016-10-04T04:28:10.149Z,0
2016-10-04T04:28:50.683Z,0
2016-10-04T04:29:31.172Z,0
2016-10-04T04:30:11.855Z,0
2016-10-04T04:30:52.361Z,0
2016-10-04T04:31:32.684Z,0
2016-10-04T04:32:13.210Z,0
2016-10-04T04:32:53.714Z,0
2016-10-04T04:33:34.248Z,0
2016-10-04T04:34:14.724Z,0
2016-10-04T04:34:55.251Z,0
2016-10-04T04:35:35.786Z,0
2016-10-04T04:36:16.313Z,0
2016-10-04T04:36:56.838Z,0
2016-10-04T04:37:37.432Z,0
2016-10-04T04:38:18.016Z,0
2016-10-04T04:38:58.692Z,0
2016-10-04T04:39:39.227Z,0
2016-10-04T04:40:19.817Z,0
2016-10-04T04:41:00.339Z,0
2016-10-04T04:41:40.860Z,0
2016-10-04T04:42:21.356Z,0
2016-10-04T04:43:01.884Z,0
2016-10-04T04:43:42.414Z,0
2016-10-04T04:44:22.903Z,0
2016-10-04T04:45:03.413Z,0
2016-10-04T04:45:43.939Z,0
2016-10-04T04:46:24.433Z,0
2016-10-04T04:47:04.981Z,0
2016-10-04T04:47:45.491Z,0
2016-10-04T04:48:25.985Z,0
2016-10-04T04:49:06.486Z,0
2016-10-04T04:49:46.989Z,0
2016-10-04T04:50:27.564Z,0
2016-10-04T04:51:07.992Z,0
2016-10-04T04:51:48.494Z,0
2016-10-04T04:52:29.031Z,0
2016-10-04T04:53:09.528Z,0
2016-10-04T04:53:50.045Z,0
2016-10-04T04:54:30.536Z,0
2016-10-04T04:55:11.018Z,0
2016-10-04T04:55:51.531Z,0
2016-10-04T04:56:32.068Z,0
2016-10-04T04:57:12.587Z,0
2016-10-04T04:57:53.157Z,0
2016-10-04T04:58:33.679Z,0
2016-10-04T04:59:14.199Z,0
2016-10-04T04:59:54.726Z,0
2016-10-04T05:00:35.265Z,0
2016-10-04T05:01:15.793Z,0
2016-10-04T05:01:56.303Z,0
2016-10-04T05:02:36.826Z,0
2016-10-04T05:03:17.354Z,0
2016-10-04T05:03:57.860Z,0
2016-10-04T05:04:38.362Z,0
2016-10-04T05:05:18.886Z,0
2016-10-04T05:05:59.510Z,0
2016-10-04T05:06:39.937Z,0
2016-10-04T05:07:20.458Z,0
2016-10-04T05:08:01.016Z,0
2016-10-04T05:08:41.533Z,0
2016-10-04T05:09:22.063Z,0
2016-10-04T05:10:02.576Z,0
2016-10-04T05:10:43.117Z,0
2016-10-04T05:11:23.641Z,0
2016-10-04T05:12:04.189Z,0
2016-10-04T05:12:44.774Z,0
2016-10-04T05:13:25.337Z,0
2016-10-04T05:14:06.059Z,0
2016-10-04T05:14:46.522Z,0
2016-10-04T05:15:27.119Z,0
2016-10-04T05:16:07.826Z,0
2016-10-04T05:16:48.283Z,0
2016-10-04T05:17:28.868Z,0
2016-10-04T05:18:09.372Z,0
2016-10-04T05:18:49.969Z,0
2016-10-04T05:19:30.476Z,0
2016-10-04T05:20:11.027Z,0
2016-10-04T05:20:51.586Z,0
2016-10-04T05:21:32.356Z,0
2016-10-04T05:22:12.883Z,0
2016-10-04T05:22:53.578Z,0
2016-10-04T05:23:34.122Z,0
2016-10-04T05:24:14.725Z,0
2016-10-04T05:24:55.292Z,0
2016-10-04T05:25:35.855Z,0
2016-10-04T05:26:16.400Z,0
2016-10-04T05:26:56.943Z,0
2016-10-04T05:27:37.597Z,0
2016-10-04T05:28:18.325Z,0
2016-10-04T05:28:58.863Z,0
2016-10-04T05:29:39.380Z,0
2016-10-04T05:30:19.897Z,0
2016-10-04T05:31:00.429Z,5
2016-10-04T05:31:40.976Z,5
2016-10-04T05:32:21.531Z,5
2016-10-04T05:33:02.031Z,5
2016-10-04T05:33:42.564Z,5
2016-10-04T05:34:23.104Z,5
2016-10-04T05:35:03.753Z,5
2016-10-04T05:35:44.302Z,5
2016-10-04T05:36:24.817Z,5
2016-10-04T05:37:05.297Z,5
2016-10-04T05:37:45.823Z,5
2016-10-04T05:38:26.288Z,5
2016-10-04T05:39:06.795Z,10
2016-10-04T05:39:47.388Z,10
2016-10-04T05:40:27.891Z,5
2016-10-04T05:41:08.393Z,10
2016-10-04T05:41:48.891Z,5
2016-10-04T05:42:29.407Z,5
2016-10-04T05:43:09.916Z,5
2016-10-04T05:43:50.416Z,10
2016-10-04T05:44:30.908Z,10
2016-10-04T05:45:11.408Z,10
2016-10-04T05:45:51.905Z,10
2016-10-04T05:46:32.401Z,10
2016-10-04T05:47:12.885Z,10
2016-10-04T05:47:53.406Z,10
2016-10-04T05:48:33.940Z,10
2016-10-04T05:49:14.429Z,10
2016-10-04T05:49:54.918Z,10
2016-10-04T05:50:35.436Z,15
2016-10-04T05:51:15.948Z,15
2016-10-04T05:51:56.455Z,15
2016-10-04T05:52:36.959Z,15
2016-10-04T05:53:17.457Z,15
2016-10-04T05:53:57.971Z,15
2016-10-04T05:54:38.458Z,15
2016-10-04T05:55:19.016Z,15
2016-10-04T05:55:59.515Z,15
2016-10-04T05:56:39.984Z,20
2016-10-04T05:57:20.492Z,20
2016-10-04T05:58:00.993Z,20
2016-10-04T05:58:41.500Z,20
2016-10-04T05:59:22.027Z,20
2016-10-04T06:00:02.578Z,20
2016-10-04T06:00:43.074Z,20
2016-10-04T06:01:23.605Z,20
2016-10-04T06:02:04.125Z,20
2016-10-04T06:02:44.648Z,20
2016-10-04T06:03:25.144Z,20
2016-10-04T06:04:05.644Z,20
2016-10-04T06:04:46.194Z,20
2016-10-04T06:05:26.722Z,20
2016-10-04T06:06:07.246Z,25
2016-10-04T06:06:48.015Z,25
2016-10-04T06:07:28.523Z,25
2016-10-04T06:08:09.035Z,25
2016-10-04T06:08:49.522Z,25
2016-10-04T06:09:30.024Z,25
2016-10-04T06:10:10.525Z,30
2016-10-04T06:10:51.032Z,30
2016-10-04T06:11:31.555Z,35
2016-10-04T06:12:12.089Z,35
2016-10-04T06:12:52.623Z,40
2016-10-04T06:13:33.141Z,40
2016-10-04T06:14:13.712Z,45
2016-10-04T06:14:54.220Z,45
2016-10-04T06:15:34.762Z,40
2016-10-04T06:16:15.255Z,40
2016-10-04T06:16:55.755Z,40
2016-10-04T06:17:36.308Z,40
2016-10-04T06:18:16.784Z,40
2016-10-04T06:18:57.302Z,40
2016-10-04T06:19:37.793Z,45
2016-10-04T06:20:18.312Z,40
2016-10-04T06:20:58.832Z,35
2016-10-04T06:21:39.356Z,35
2016-10-04T06:22:19.881Z,35
2016-10-04T06:23:00.408Z,35
2016-10-04T06:23:40.932Z,35
2016-10-04T06:24:21.477Z,35
2016-10-04T06:25:02.023Z,35
2016-10-04T06:25:42.511Z,35
2016-10-04T06:26:22.987Z,35
2016-10-04T06:27:03.518Z,40
2016-10-04T06:27:44.022Z,40
2016-10-04T06:28:24.514Z,45
2016-10-04T06:29:05.001Z,50
2016-10-04T06:29:45.525Z,55
2016-10-04T06:30:25.988Z,55
2016-10-04T06:31:06.491Z,55
2016-10-04T06:31:46.986Z,50
2016-10-04T06:32:27.493Z,50
2016-10-04T06:33:07.983Z,45
2016-10-04T06:33:48.494Z,45
2016-10-04T06:34:28.985Z,45
2016-10-04T06:35:09.531Z,45
2016-10-04T06:35:50.037Z,40
2016-10-04T06:36:30.526Z,40
2016-10-04T06:37:11.021Z,45
2016-10-04T06:37:51.551Z,45
2016-10-04T06:38:32.069Z,50
2016-10-04T06:39:12.567Z,55
2016-10-04T06:39:53.075Z,55
2016-10-04T06:40:33.609Z,55
2016-10-04T06:41:14.093Z,55
2016-10-04T06:41:54.597Z,55
2016-10-04T06:42:35.102Z,55
2016-10-04T06:43:15.622Z,55
2016-10-04T06:43:56.148Z,60
2016-10-04T06:44:36.612Z,60
2016-10-04T06:45:17.112Z,65
2016-10-04T06:45:57.600Z,65
2016-10-04T06:46:38.121Z,65
2016-10-04T06:47:18.651Z,65
2016-10-04T06:47:59.180Z,65
2016-10-04T06:48:39.709Z,65
2016-10-04T06:49:20.257Z,70
2016-10-04T06:50:00.798Z,70
2016-10-04T06:50:41.340Z,70
2016-10-04T06:51:21.863Z,70
2016-10-04T06:52:02.387Z,75
2016-10-04T06:52:42.912Z,90
2016-10-04T06:53:23.428Z,100
2016-10-04T06:54:03.945Z,110
2016-10-04T06:54:44.464Z,110
2016-10-04T06:55:24.966Z,105
2016-10-04T06:56:05.489Z,110
2016-10-04T06:56:45.983Z,115
2016-10-04T06:57:26.490Z,120
2016-10-04T06:58:06.992Z,125
2016-10-04T06:58:47.507Z,125
2016-10-04T06:59:28.049Z,130
2016-10-04T07:00:08.572Z,140
2016-10-04T07:00:49.221Z,150
2016-10-04T07:01:29.741Z,155
2016-10-04T07:02:10.287Z,160
2016-10-04T07:02:50.804Z,165
2016-10-04T07:03:31.281Z,165
2016-10-04T07:04:11.786Z,165
2016-10-04T07:04:52.310Z,160
2016-10-04T07:05:32.790Z,155
2016-10-04T07:06:13.312Z,155
2016-10-04T07:06:53.843Z,160
2016-10-04T07:07:34.316Z,175
2016-10-04T07:08:14.861Z,195
2016-10-04T07:08:55.320Z,220
2016-10-04T07:09:35.827Z,245
2016-10-04T07:10:16.336Z,260
2016-10-04T07:10:56.838Z,230
2016-10-04T07:11:37.399Z,205
2016-10-04T07:12:17.890Z,195
2016-10-04T07:12:58.415Z,175
2016-10-04T07:13:38.941Z,160
2016-10-04T07:14:19.478Z,160
2016-10-04T07:15:00.020Z,150
2016-10-04T07:15:40.537Z,150
2016-10-04T07:16:21.063Z,155
2016-10-04T07:17:01.611Z,165
2016-10-04T07:17:42.146Z,165
2016-10-04T07:18:22.671Z,170
2016-10-04T07:19:03.180Z,170
2016-10-04T07:19:43.700Z,170
2016-10-04T07:20:24.202Z,175
2016-10-04T07:21:04.707Z,175
2016-10-04T07:21:45.192Z,190
2016-10-04T07:22:25.692Z,190
2016-10-04T07:23:06.211Z,195
2016-10-04T07:23:46.743Z,200
2016-10-04T07:24:27.285Z,205
2016-10-04T07:25:07.825Z,205
2016-10-04T07:25:48.359Z,200
2016-10-04T07:26:28.866Z,205
2016-10-04T07:27:09.400Z,220
2016-10-04T07:27:49.935Z,245
2016-10-04T07:28:30.469Z,260
2016-10-04T07:29:10.998Z,270
2016-10-04T07:29:51.503Z,275
2016-10-04T07:30:31.996Z,275
2016-10-04T07:31:12.483Z,265
2016-10-04T07:31:53.000Z,265
2016-10-04T07:32:33.472Z,260
2016-10-04T07:33:14.009Z,265
2016-10-04T07:33:54.489Z,265
2016-10-04T07:34:34.992Z,265
2016-10-04T07:35:15.511Z,270
2016-10-04T07:35:56.053Z,270
2016-10-04T07:36:36.593Z,265
2016-10-04T07:37:17.119Z,240
2016-10-04T07:37:57.667Z,285
2016-10-04T07:38:38.197Z,320
2016-10-04T07:39:18.737Z,305
2016-10-04T07:39:59.277Z,320
2016-10-04T07:40:39.804Z,340
2016-10-04T07:41:20.341Z,385
2016-10-04T07:42:00.876Z,375
2016-10-04T07:42:41.422Z,385
2016-10-04T07:43:21.929Z,400
2016-10-04T07:44:02.437Z,415
2016-10-04T07:44:42.939Z,390
2016-10-04T07:45:23.480Z,390
2016-10-04T07:46:03.940Z,390
2016-10-04T07:46:44.451Z,380
2016-10-04T07:47:24.963Z,355
2016-10-04T07:48:05.479Z,370
2016-10-04T07:48:45.964Z,380
2016-10-04T07:49:26.518Z,380
2016-10-04T07:50:06.977Z,365
2016-10-04T07:50:47.502Z,370
2016-10-04T07:51:28.005Z,380
2016-10-04T07:52:08.497Z,355
2016-10-04T07:52:49.001Z,340
2016-10-04T07:53:29.522Z,350
2016-10-04T07:54:10.005Z,365
2016-10-04T07:54:50.506Z,365
2016-10-04T07:55:31.014Z,365
2016-10-04T07:56:11.584Z,370
2016-10-04T07:56:52.108Z,390
2016-10-04T07:57:32.588Z,370
2016-10-04T07:58:13.086Z,375
2016-10-04T07:58:53.617Z,400
2016-10-04T07:59:34.129Z,415
2016-10-04T08:00:14.657Z,425
2016-10-04T08:00:55.189Z,430
2016-10-04T08:01:35.758Z,435
2016-10-04T08:02:16.277Z,440
2016-10-04T08:02:56.759Z,425
2016-10-04T08:03:37.278Z,405
2016-10-04T08:04:17.771Z,385
2016-10-04T08:04:58.289Z,390
2016-10-04T08:05:38.780Z,410
2016-10-04T08:06:19.308Z,395
2016-10-04T08:06:59.846Z,400
2016-10-04T08:07:40.375Z,410
2016-10-04T08:08:20.920Z,400
2016-10-04T08:09:01.445Z,395
2016-10-04T08:09:41.962Z,360
2016-10-04T08:10:22.437Z,360
2016-10-04T08:11:02.922Z,345
2016-10-04T08:11:43.469Z,335
2016-10-04T08:12:23.967Z,340
2016-10-04T08:13:04.466Z,325
2016-10-04T08:13:44.953Z,340
2016-10-04T08:14:25.459Z,345
2016-10-04T08:15:06.005Z,355
2016-10-04T08:15:46.469Z,340
2016-10-04T08:16:26.995Z,325
2016-10-04T08:17:07.489Z,315
2016-10-04T08:17:47.988Z,300
2016-10-04T08:18:28.500Z,300
2016-10-04T08:19:08.989Z,305
2016-10-04T08:19:49.499Z,300
2016-10-04T08:20:30.002Z,280
2016-10-04T08:21:10.527Z,290
2016-10-04T08:21:51.052Z,295
2016-10-04T08:22:31.595Z,325
2016-10-04T08:23:12.147Z,375
2016-10-04T08:23:52.693Z,455
2016-10-04T08:24:33.220Z,390
2016-10-04T08:25:13.755Z,340
2016-10-04T08:25:54.282Z,350
2016-10-04T08:26:34.812Z,345
2016-10-04T08:27:15.305Z,365
2016-10-04T08:27:55.804Z,375
2016-10-04T08:28:36.303Z,360
2016-10-04T08:29:16.853Z,440
2016-10-04T08:29:57.339Z,505
2016-10-04T08:30:37.806Z,520
2016-10-04T08:31:18.335Z,490
2016-10-04T08:31:58.839Z,470
2016-10-04T08:32:39.404Z,425
2016-10-04T08:33:19.936Z,400
2016-10-04T08:34:00.448Z,400
2016-10-04T08:34:40.980Z,375
2016-10-04T08:35:21.454Z,345
2016-10-04T08:36:01.960Z,310
2016-10-04T08:36:42.503Z,330
2016-10-04T08:37:23.032Z,370
2016-10-04T08:38:03.535Z,375
2016-10-04T08:38:44.048Z,385
2016-10-04T08:39:24.549Z,400
2016-10-04T08:40:05.065Z,420
2016-10-04T08:40:45.565Z,490
2016-10-04T08:41:26.036Z,440
2016-10-04T08:42:06.540Z,600
2016-10-04T08:42:47.086Z,800
2016-10-04T08:43:27.625Z,555
2016-10-04T08:44:08.169Z,545
2016-10-04T08:44:48.697Z,470
2016-10-04T08:45:29.218Z,390
2016-10-04T08:46:09.763Z,390
2016-10-04T08:46:50.284Z,405
2016-10-04T08:47:30.822Z,395
2016-10-04T08:48:11.383Z,390
2016-10-04T08:48:51.910Z,400
2016-10-04T08:49:32.460Z,430
2016-10-04T08:50:12.982Z,455
2016-10-04T08:50:53.531Z,445
2016-10-04T08:51:34.059Z,415
2016-10-04T08:52:14.572Z,395
2016-10-04T08:52:55.057Z,400
2016-10-04T08:53:35.609Z,525
2016-10-04T08:54:16.157Z,580
2016-10-04T08:54:56.702Z,545
2016-10-04T08:55:37.245Z,465
2016-10-04T08:56:17.732Z,445
2016-10-04T08:56:58.235Z,455
2016-10-04T08:57:38.742Z,445
2016-10-04T08:58:19.251Z,440
2016-10-04T08:58:59.805Z,455
2016-10-04T08:59:40.345Z,560
2016-10-04T09:00:20.864Z,495
2016-10-04T09:01:01.358Z,470
2016-10-04T09:01:41.902Z,455
2016-10-04T09:02:22.462Z,430
2016-10-04T09:03:02.978Z,435
2016-10-04T09:03:43.475Z,430
2016-10-04T09:04:23.983Z,465
2016-10-04T09:05:04.513Z,495
2016-10-04T09:05:45.043Z,505
2016-10-04T09:06:25.573Z,510
2016-10-04T09:07:06.102Z,485
2016-10-04T09:07:46.632Z,435
2016-10-04T09:08:27.177Z,395
2016-10-04T09:09:07.695Z,370
2016-10-04T09:09:48.232Z,350
2016-10-04T09:10:28.776Z,350
2016-10-04T09:11:09.318Z,335
2016-10-04T09:11:49.847Z,310
2016-10-04T09:12:30.367Z,300
2016-10-04T09:13:10.897Z,325
2016-10-04T09:13:51.436Z,330
2016-10-04T09:14:31.999Z,330
2016-10-04T09:15:12.528Z,340
2016-10-04T09:15:53.006Z,320
2016-10-04T09:16:33.500Z,310
2016-10-04T09:17:13.995Z,295
2016-10-04T09:17:54.481Z,290
2016-10-04T09:18:34.952Z,280
2016-10-04T09:19:15.437Z,275
2016-10-04T09:19:55.937Z,285
2016-10-04T09:20:36.430Z,280
2016-10-04T09:21:16.887Z,275
2016-10-04T09:21:57.390Z,280
2016-10-04T09:22:37.864Z,275
2016-10-04T09:23:18.387Z,275
2016-10-04T09:23:58.933Z,300
2016-10-04T09:24:39.438Z,305
2016-10-04T09:25:19.961Z,300
2016-10-04T09:26:00.496Z,305
2016-10-04T09:26:40.969Z,310
2016-10-04T09:27:21.497Z,315
2016-10-04T09:28:02.042Z,310
2016-10-04T09:28:42.587Z,300
2016-10-04T09:29:23.136Z,295
2016-10-04T09:30:03.679Z,295
2016-10-04T09:30:44.239Z,285
2016-10-04T09:31:24.778Z,270
2016-10-04T09:32:05.338Z,265
2016-10-04T09:32:45.851Z,260
2016-10-04T09:33:26.423Z,260
2016-10-04T09:34:06.950Z,260
2016-10-04T09:34:47.483Z,255
2016-10-04T09:35:28.029Z,260
2016-10-04T09:36:08.559Z,270
2016-10-04T09:36:49.113Z,280
2016-10-04T09:37:29.638Z,275
2016-10-04T09:38:10.197Z,280
2016-10-04T09:38:50.714Z,295
2016-10-04T09:39:31.268Z,305
2016-10-04T09:40:11.763Z,305
2016-10-04T09:40:52.257Z,310
2016-10-04T09:41:32.779Z,305
2016-10-04T09:42:13.246Z,305
2016-10-04T09:42:53.769Z,325
2016-10-04T09:43:34.245Z,360
2016-10-04T09:44:14.783Z,380
2016-10-04T09:44:55.235Z,385
2016-10-04T09:45:35.745Z,400
2016-10-04T09:46:16.222Z,410
2016-10-04T09:46:56.736Z,395
2016-10-04T09:47:37.230Z,365
2016-10-04T09:48:17.741Z,360